createdAt,value
2023-07-24T00:00:40.928Z,75.93
2023-07-24T00:03:08.816Z,76.64
2023-07-24T00:05:36.430Z,78.17
2023-07-24T00:08:03.992Z,78.36
2023-07-24T00:10:31.695Z,78.48
2023-07-24T00:12:59.207Z,78.73
2023-07-24T00:15:26.611Z,78.69
2023-07-24T00:17:54.346Z,77.11
2023-07-24T00:20:22.163Z,78.59
2023-07-24T00:22:49.428Z,78.50
2023-07-24T00:25:17.226Z,77.75
2023-07-24T00:27:44.697Z,78.09
2023-07-24T00:30:13.591Z,80.69
2023-07-24T00:32:41.497Z,80.01
2023-07-24T00:35:09.824Z,81.29
2023-07-24T00:37:38.249Z,80.96
2023-07-24T00:40:06.629Z,82.52
2023-07-24T00:42:33.949Z,82.98
2023-07-24T00:45:04.123Z,82.60
2023-07-24T00:47:33.303Z,81.53
2023-07-24T00:50:00.669Z,81.15
2023-07-24T00:52:27.948Z,79.62
2023-07-24T00:54:56.054Z,79.10
2023-07-24T00:57:24.662Z,79.22
2023-07-24T00:59:52.225Z,80.62
2023-07-24T01:02:19.832Z,80.73
2023-07-24T01:04:47.894Z,82.36
2023-07-24T01:07:17.815Z,82.49
2023-07-24T01:09:45.654Z,81.49
2023-07-24T01:12:56.593Z,82.20
2023-07-24T01:15:32.594Z,83.45
2023-07-24T01:18:14.995Z,80.51
2023-07-24T01:20:49.758Z,80.37
2023-07-24T01:23:39.052Z,80.54
2023-07-24T01:26:08.293Z,80.42
2023-07-24T01:28:35.528Z,80.29
2023-07-24T01:31:03.097Z,80.17
2023-07-24T01:33:32.912Z,79.90
2023-07-24T01:36:03.742Z,80.27
2023-07-24T01:38:33.660Z,79.70
2023-07-24T01:41:01.729Z,79.88
2023-07-24T01:43:30.993Z,80.60
2023-07-24T01:45:59.207Z,80.86
2023-07-24T01:48:26.702Z,80.61
2023-07-24T01:50:55.396Z,80.11
2023-07-24T01:53:23.088Z,80.69
2023-07-24T01:55:50.396Z,80.62
2023-07-24T01:58:17.768Z,81.24
2023-07-24T02:00:45.464Z,81.28
2023-07-24T02:03:12.710Z,81.10
2023-07-24T02:05:40.401Z,83.43
2023-07-24T02:08:07.735Z,85.66
2023-07-24T02:10:38.994Z,84.38
2023-07-24T02:13:08.786Z,82.17
2023-07-24T02:15:37.453Z,83.29
2023-07-24T02:18:05.029Z,81.81
2023-07-24T02:20:32.354Z,80.98
2023-07-24T02:22:59.625Z,82.60
2023-07-24T02:25:28.280Z,82.95
2023-07-24T02:27:55.679Z,83.68
2023-07-24T02:30:24.588Z,85.30
2023-07-24T02:32:52.520Z,84.88
2023-07-24T02:35:19.895Z,84.02
2023-07-24T02:37:47.227Z,83.28
2023-07-24T02:40:15.238Z,83.66
2023-07-24T02:42:42.910Z,84.35
2023-07-24T02:45:12.301Z,85.79
2023-07-24T02:47:40.101Z,86.37
2023-07-24T02:50:07.975Z,85.68
2023-07-24T02:52:35.375Z,85.37
2023-07-24T02:55:03.180Z,84.62
2023-07-24T02:57:30.753Z,84.42
2023-07-24T02:59:58.173Z,84.14
2023-07-24T03:02:26.263Z,82.39
2023-07-24T03:04:53.842Z,81.90
2023-07-24T03:07:21.309Z,83.01
2023-07-24T03:09:49.287Z,85.31
2023-07-24T03:12:16.761Z,86.92
2023-07-24T03:14:44.626Z,87.52
2023-07-24T03:17:12.611Z,87.48
2023-07-24T03:19:40.102Z,87.67
2023-07-24T03:22:07.678Z,87.39
2023-07-24T03:24:37.109Z,87.43
2023-07-24T03:27:04.946Z,88.06
2023-07-24T03:29:32.376Z,88.13
2023-07-24T03:32:00.689Z,87.63
2023-07-24T03:34:28.210Z,86.63
2023-07-24T03:36:55.582Z,86.97
2023-07-24T03:39:24.102Z,86.28
2023-07-24T03:41:52.848Z,85.84
2023-07-24T03:44:20.280Z,85.94
2023-07-24T03:46:48.129Z,87.23
2023-07-24T03:49:15.562Z,86.60
2023-07-24T03:51:43.058Z,87.12
2023-07-24T03:54:11.945Z,85.41
2023-07-24T03:56:39.251Z,84.81
2023-07-24T03:59:07.314Z,84.55
2023-07-24T04:01:35.450Z,85.90
2023-07-24T04:04:03.235Z,86.32
2023-07-24T04:06:31.470Z,86.79
2023-07-24T04:08:59.638Z,86.51
2023-07-24T04:11:27.486Z,87.16
2023-07-24T04:13:54.890Z,86.71
2023-07-24T04:16:22.398Z,85.95
2023-07-24T04:18:50.110Z,87.21
2023-07-24T04:21:17.431Z,89.19
2023-07-24T04:23:44.867Z,90.55
2023-07-24T04:26:12.599Z,89.79
2023-07-24T04:28:39.942Z,88.27
2023-07-24T04:31:07.456Z,87.93
2023-07-24T04:33:35.148Z,87.88
2023-07-24T04:36:02.741Z,86.57
2023-07-24T04:38:30.398Z,86.33
2023-07-24T04:40:58.663Z,86.21
2023-07-24T04:43:26.547Z,86.42
2023-07-24T04:45:53.833Z,86.28
2023-07-24T04:48:21.843Z,86.12
2023-07-24T04:50:55.194Z,86.46
2023-07-24T04:53:23.487Z,86.69
2023-07-24T04:55:50.875Z,86.10
2023-07-24T04:58:18.682Z,87.80
2023-07-24T05:00:46.532Z,88.40
2023-07-24T05:03:14.017Z,90.63
2023-07-24T05:05:45.070Z,89.53
2023-07-24T05:08:14.873Z,89.14
2023-07-24T05:10:42.472Z,87.88
2023-07-24T05:13:11.984Z,86.20
2023-07-24T05:15:41.180Z,84.87
2023-07-24T05:18:08.486Z,83.59
2023-07-24T05:20:35.916Z,83.70
2023-07-24T05:23:04.272Z,83.46
2023-07-24T05:25:31.835Z,83.36
2023-07-24T05:27:59.432Z,82.57
2023-07-24T05:30:27.205Z,81.84
2023-07-24T05:32:54.639Z,80.85
2023-07-24T05:35:22.204Z,79.05
2023-07-24T05:37:50.337Z,76.58
2023-07-24T05:40:18.056Z,74.90
2023-07-24T05:42:45.565Z,76.35
2023-07-24T05:45:13.657Z,75.07
2023-07-24T05:47:41.307Z,73.52
2023-07-24T05:50:09.579Z,72.91
2023-07-24T05:52:37.343Z,72.40
2023-07-24T05:55:05.090Z,72.80
2023-07-24T05:57:32.580Z,73.26
2023-07-24T06:00:00.462Z,72.87
2023-07-24T06:02:28.124Z,72.14
2023-07-24T06:04:55.898Z,69.13
2023-07-24T06:07:23.480Z,69.77
2023-07-24T06:09:51.401Z,70.06
2023-07-24T06:12:19.355Z,70.28
2023-07-24T06:14:47.006Z,69.52
2023-07-24T06:17:14.599Z,68.41
2023-07-24T06:19:42.404Z,66.39
2023-07-24T06:22:10.150Z,65.79
2023-07-24T06:24:37.754Z,64.86
2023-07-24T06:27:07.881Z,64.07
2023-07-24T06:29:40.134Z,65.66
2023-07-24T06:32:09.485Z,65.79
2023-07-24T06:34:37.241Z,63.79
2023-07-24T06:37:20.586Z,64.37
2023-07-24T06:39:50.370Z,65.84
2023-07-24T06:42:17.990Z,63.94
2023-07-24T06:44:45.458Z,63.89
2023-07-24T06:47:13.721Z,62.46
2023-07-24T06:49:41.195Z,62.48
2023-07-24T06:52:08.773Z,61.20
2023-07-24T06:54:36.628Z,60.97
2023-07-24T06:57:04.320Z,59.72
2023-07-24T06:59:32.194Z,59.68
2023-07-24T07:01:59.990Z,56.48
2023-07-24T07:04:27.552Z,54.13
2023-07-24T07:06:55.299Z,55.95
2023-07-24T07:09:23.284Z,55.41
2023-07-24T07:11:51.488Z,54.16
2023-07-24T07:14:19.166Z,51.63
2023-07-24T07:16:48.977Z,49.99
2023-07-24T07:19:17.077Z,48.04
2023-07-24T07:21:44.665Z,46.11
2023-07-24T07:24:12.767Z,43.90
2023-07-24T07:26:40.511Z,45.48
2023-07-24T07:29:08.919Z,41.20
2023-07-24T07:31:37.195Z,42.69
2023-07-24T07:34:04.766Z,39.67
2023-07-24T07:36:32.961Z,39.54
2023-07-24T07:39:00.985Z,39.03
2023-07-24T07:41:29.888Z,37.98
2023-07-24T07:43:57.510Z,38.30
2023-07-24T07:46:26.434Z,38.59
2023-07-24T07:48:54.517Z,38.42
2023-07-24T07:51:22.499Z,39.17
2023-07-24T07:53:50.622Z,40.01
2023-07-24T07:56:18.409Z,42.26
2023-07-24T07:58:46.048Z,40.61
2023-07-24T08:01:14.069Z,42.81
2023-07-24T08:03:42.896Z,42.26
2023-07-24T08:06:11.401Z,40.91
2023-07-24T08:08:39.654Z,40.62
2023-07-24T08:11:07.623Z,42.70
2023-07-24T08:13:35.945Z,41.37
2023-07-24T08:16:04.624Z,39.93
2023-07-24T08:18:32.579Z,39.45
2023-07-24T08:21:00.108Z,37.59
2023-07-24T08:23:27.616Z,37.69
2023-07-24T08:25:56.085Z,40.03
2023-07-24T08:28:23.920Z,38.59
2023-07-24T08:31:06.696Z,39.90
2023-07-24T08:33:35.318Z,39.23
2023-07-24T08:36:05.441Z,40.09
2023-07-24T08:38:34.428Z,39.04
2023-07-24T08:41:06.898Z,40.43
2023-07-24T08:43:36.604Z,39.83
2023-07-24T08:46:05.857Z,37.42
2023-07-24T08:48:39.615Z,37.99
2023-07-24T08:51:09.968Z,35.77
2023-07-24T08:53:39.597Z,36.59
2023-07-24T08:56:09.448Z,35.31
2023-07-24T08:58:37.559Z,35.76
2023-07-24T09:01:05.860Z,36.97
2023-07-24T09:03:34.785Z,36.18
2023-07-24T09:06:05.269Z,36.71
2023-07-24T09:08:35.140Z,35.76
2023-07-24T09:11:05.115Z,35.54
2023-07-24T09:13:32.874Z,38.18
2023-07-24T09:16:00.811Z,36.04
2023-07-24T09:18:41.277Z,37.12
2023-07-24T09:21:09.098Z,36.34
2023-07-24T09:23:37.793Z,37.11
2023-07-24T09:26:09.265Z,36.52
2023-07-24T09:28:38.013Z,35.84
2023-07-24T09:31:06.265Z,34.57
2023-07-24T09:33:39.178Z,33.29
2023-07-24T09:36:11.205Z,34.13
2023-07-24T09:38:40.284Z,33.61
2023-07-24T09:41:08.637Z,33.55
2023-07-24T09:43:41.544Z,34.21
2023-07-24T09:46:10.872Z,34.27
2023-07-24T09:48:42.214Z,34.48
2023-07-24T09:51:14.841Z,34.31
2023-07-24T09:53:52.682Z,33.67
2023-07-24T09:56:26.034Z,35.05
2023-07-24T09:59:01.676Z,35.69
2023-07-24T10:01:31.506Z,34.42
2023-07-24T10:04:01.468Z,34.56
2023-07-24T10:06:31.575Z,37.33
2023-07-24T10:09:00.086Z,35.72
2023-07-24T10:11:27.894Z,35.00
2023-07-24T10:13:56.078Z,35.69
2023-07-24T10:16:24.557Z,36.45
2023-07-24T10:18:52.024Z,33.82
2023-07-24T10:21:19.586Z,36.84
2023-07-24T10:23:47.901Z,33.35
2023-07-24T10:26:17.345Z,32.51
2023-07-24T10:28:48.991Z,33.03
2023-07-24T10:31:30.016Z,32.65
2023-07-24T10:34:06.012Z,32.54
2023-07-24T10:36:38.175Z,30.25
2023-07-24T10:39:15.439Z,31.57
2023-07-24T10:41:46.793Z,33.18
2023-07-24T10:44:14.974Z,31.38
2023-07-24T10:46:44.226Z,32.22
2023-07-24T10:49:13.735Z,30.84
2023-07-24T10:51:41.286Z,31.78
2023-07-24T10:54:09.087Z,32.22
2023-07-24T10:56:39.006Z,31.42
2023-07-24T10:59:07.942Z,30.82
2023-07-24T11:01:36.513Z,31.70
2023-07-24T11:04:04.983Z,31.07
2023-07-24T11:06:32.517Z,31.87
2023-07-24T11:09:01.441Z,31.47
2023-07-24T11:11:31.149Z,30.25
2023-07-24T11:13:59.281Z,30.94
2023-07-24T11:16:27.723Z,30.80
2023-07-24T11:18:57.100Z,31.29
2023-07-24T11:21:25.643Z,30.90
2023-07-24T11:23:56.239Z,30.58
2023-07-24T11:26:25.914Z,29.76
2023-07-24T11:28:54.572Z,32.33
2023-07-24T11:31:22.586Z,30.43
2023-07-24T11:33:51.749Z,29.71
2023-07-24T11:36:20.456Z,28.83
2023-07-24T11:38:50.207Z,27.81
2023-07-24T11:41:26.804Z,29.17
2023-07-24T11:43:54.811Z,28.22
2023-07-24T11:46:27.420Z,28.31
2023-07-24T11:48:58.804Z,28.74
2023-07-24T11:51:30.800Z,29.12
2023-07-24T11:54:09.023Z,29.71
2023-07-24T11:56:37.644Z,29.69
2023-07-24T11:59:13.191Z,30.04
2023-07-24T12:01:41.247Z,29.17
2023-07-24T12:04:09.407Z,30.29
2023-07-24T12:06:37.147Z,30.29
2023-07-24T12:09:08.867Z,30.21
2023-07-24T12:11:45.568Z,30.71
2023-07-24T12:14:15.462Z,30.86
2023-07-24T12:16:43.440Z,30.94
2023-07-24T12:19:10.865Z,30.96
2023-07-24T12:21:38.280Z,30.54
2023-07-24T12:24:06.447Z,29.54
2023-07-24T12:26:33.970Z,31.16
2023-07-24T12:29:01.928Z,30.55
2023-07-24T12:31:30.300Z,30.86
2023-07-24T12:33:58.251Z,27.77
2023-07-24T12:36:25.819Z,27.70
2023-07-24T12:38:53.597Z,27.75
2023-07-24T12:41:21.100Z,27.96
2023-07-24T12:43:48.598Z,28.42
2023-07-24T12:46:16.485Z,29.63
2023-07-24T12:48:43.952Z,29.29
2023-07-24T12:51:11.370Z,28.83
2023-07-24T12:53:44.073Z,27.83
2023-07-24T12:56:26.410Z,28.25
2023-07-24T12:58:56.640Z,27.26
2023-07-24T13:01:25.330Z,29.13
2023-07-24T13:03:53.384Z,28.00
2023-07-24T13:06:21.300Z,26.74
2023-07-24T13:08:49.134Z,28.47
2023-07-24T13:11:16.662Z,26.67
2023-07-24T13:13:45.426Z,26.41
2023-07-24T13:16:12.885Z,27.28
2023-07-24T13:18:40.383Z,26.34
2023-07-24T13:21:09.275Z,26.61
2023-07-24T13:23:36.651Z,27.06
2023-07-24T13:26:04.773Z,27.21
2023-07-24T13:28:32.549Z,27.68
2023-07-24T13:31:00.122Z,26.34
2023-07-24T13:33:27.674Z,25.87
2023-07-24T13:35:55.519Z,27.14
2023-07-24T13:38:22.939Z,28.14
2023-07-24T13:40:51.087Z,27.22
2023-07-24T13:43:20.054Z,26.50
2023-07-24T13:45:47.609Z,25.61
2023-07-24T13:48:15.015Z,25.75
2023-07-24T13:50:42.858Z,25.75
2023-07-24T13:53:10.543Z,25.86
2023-07-24T13:55:37.969Z,25.20
2023-07-24T13:58:05.823Z,25.96
2023-07-24T14:00:33.647Z,25.45
2023-07-24T14:03:01.373Z,26.73
2023-07-24T14:05:30.007Z,26.37
2023-07-24T14:07:57.454Z,25.44
2023-07-24T14:10:25.224Z,25.19
2023-07-24T14:12:52.665Z,23.72
2023-07-24T14:15:20.015Z,24.35
2023-07-24T14:17:48.006Z,22.04
2023-07-24T14:20:15.507Z,22.84
2023-07-24T14:22:43.148Z,22.69
2023-07-24T14:25:10.759Z,24.45
2023-07-24T14:27:38.262Z,23.42
2023-07-24T14:30:06.598Z,23.16
2023-07-24T14:32:34.413Z,22.70
2023-07-24T14:35:01.964Z,22.14
2023-07-24T14:37:29.549Z,22.92
2023-07-24T14:39:57.315Z,22.43
2023-07-24T14:42:24.796Z,22.50
2023-07-24T14:44:52.254Z,21.92
2023-07-24T14:47:20.078Z,21.94
2023-07-24T14:49:47.581Z,21.68
2023-07-24T14:52:15.047Z,22.03
2023-07-24T14:54:42.815Z,22.33
2023-07-24T14:57:23.488Z,21.86
2023-07-24T14:59:52.481Z,21.73
2023-07-24T15:02:20.173Z,21.79
2023-07-24T15:04:47.634Z,22.29
2023-07-24T15:07:15.588Z,21.60
2023-07-24T15:09:43.731Z,21.04
2023-07-24T15:12:11.343Z,21.39
2023-07-24T15:14:39.139Z,21.39
2023-07-24T15:17:06.609Z,20.40
2023-07-24T15:19:34.244Z,19.46
2023-07-24T15:22:02.135Z,19.57
2023-07-24T15:24:29.680Z,19.58
2023-07-24T15:26:57.144Z,19.01
2023-07-24T15:29:24.974Z,17.81
2023-07-24T15:31:52.750Z,17.60
2023-07-24T15:34:20.278Z,17.23
2023-07-24T15:36:48.077Z,17.50
2023-07-24T15:39:15.462Z,17.18
2023-07-24T15:41:42.937Z,17.63
2023-07-24T15:44:10.676Z,17.66
2023-07-24T15:46:38.168Z,17.40
2023-07-24T15:49:05.528Z,17.17
2023-07-24T15:51:33.935Z,17.35
2023-07-24T15:54:03.660Z,18.71
2023-07-24T15:56:31.052Z,18.02
2023-07-24T15:58:58.799Z,17.75
2023-07-24T16:01:28.098Z,17.47
2023-07-24T16:03:56.107Z,16.67
2023-07-24T16:06:23.663Z,17.81
2023-07-24T16:08:51.035Z,18.75
2023-07-24T16:11:18.864Z,19.84
2023-07-24T16:13:46.377Z,19.32
2023-07-24T16:16:15.394Z,19.87
2023-07-24T16:18:43.561Z,19.98
2023-07-24T16:21:11.047Z,20.11
2023-07-24T16:23:38.609Z,20.97
2023-07-24T16:26:06.456Z,20.64
2023-07-24T16:28:34.029Z,21.17
2023-07-24T16:31:01.669Z,21.81
2023-07-24T16:33:31.212Z,22.49
2023-07-24T16:35:58.909Z,24.12
2023-07-24T16:38:26.326Z,25.03
2023-07-24T16:40:54.324Z,27.19
2023-07-24T16:43:23.579Z,27.68
2023-07-24T16:48:23.330Z,30.09
2023-07-24T16:50:50.917Z,30.57
2023-07-24T16:53:18.382Z,30.44
2023-07-24T16:55:46.120Z,31.12
2023-07-24T16:58:13.709Z,32.41
2023-07-24T17:00:41.284Z,32.19
2023-07-24T17:03:09.466Z,32.78
2023-07-24T17:05:37.866Z,32.68
2023-07-24T17:08:05.757Z,33.80
2023-07-24T17:10:45.299Z,34.55
2023-07-24T17:13:13.341Z,34.26
2023-07-24T17:15:41.353Z,35.37
2023-07-24T17:18:08.862Z,37.63
2023-07-24T17:20:36.694Z,37.35
2023-07-24T17:23:04.294Z,37.90
2023-07-24T17:25:31.780Z,38.22
2023-07-24T17:27:59.377Z,38.32
2023-07-24T17:30:27.150Z,40.00
2023-07-24T17:32:55.222Z,40.90
2023-07-24T17:35:23.033Z,41.24
2023-07-24T17:37:50.772Z,41.64
2023-07-24T17:40:18.797Z,41.97
2023-07-24T17:42:46.149Z,42.18
2023-07-24T17:45:16.091Z,42.49
2023-07-24T17:48:05.288Z,43.50
2023-07-24T17:50:35.658Z,43.49
2023-07-24T17:53:03.879Z,42.97
2023-07-24T17:55:31.685Z,44.19
2023-07-24T17:57:59.864Z,45.88
2023-07-24T18:00:28.204Z,45.27
2023-07-24T18:02:56.098Z,45.99
2023-07-24T18:05:23.721Z,46.07
2023-07-24T18:07:52.790Z,46.75
2023-07-24T18:10:21.882Z,46.47
2023-07-24T18:12:50.077Z,47.37
2023-07-24T18:15:17.721Z,47.50
2023-07-24T18:17:46.864Z,47.45
2023-07-24T18:20:15.007Z,48.68
2023-07-24T18:22:44.096Z,48.52
2023-07-24T18:25:11.933Z,48.78
2023-07-24T18:27:40.206Z,52.27
2023-07-24T18:30:08.649Z,51.30
2023-07-24T18:32:40.229Z,51.76
2023-07-24T18:35:07.800Z,51.65
2023-07-24T18:37:35.534Z,50.43
2023-07-24T18:40:03.016Z,49.75
2023-07-24T18:42:34.619Z,51.52
2023-07-24T18:45:03.053Z,51.63
2023-07-24T18:47:31.851Z,51.99
2023-07-24T18:49:59.375Z,54.68
2023-07-24T18:52:27.309Z,53.78
2023-07-24T18:54:54.787Z,54.34
2023-07-24T18:57:22.552Z,51.86
2023-07-24T18:59:50.419Z,52.03
2023-07-24T19:02:18.222Z,53.06
2023-07-24T19:04:45.721Z,53.58
2023-07-24T19:07:14.122Z,53.58
2023-07-24T19:09:41.627Z,54.89
2023-07-24T19:12:09.315Z,53.67
2023-07-24T19:14:37.188Z,53.97
2023-07-24T19:17:05.073Z,56.21
2023-07-24T19:19:32.748Z,55.01
2023-07-24T19:22:00.607Z,54.88
2023-07-24T19:24:28.240Z,55.25
2023-07-24T19:26:55.709Z,55.85
2023-07-24T19:29:23.508Z,56.40
2023-07-24T19:31:52.241Z,55.64
2023-07-24T19:34:19.969Z,55.91
2023-07-24T19:36:47.831Z,55.22
2023-07-24T19:39:15.326Z,56.03
2023-07-24T19:41:42.787Z,57.00
2023-07-24T19:44:10.829Z,58.19
2023-07-24T19:46:38.234Z,58.69
2023-07-24T19:49:05.846Z,58.70
2023-07-24T19:51:33.925Z,58.05
2023-07-24T19:54:01.607Z,59.01
2023-07-24T19:56:29.002Z,57.99
2023-07-24T19:58:56.817Z,58.42
2023-07-24T20:01:27.183Z,58.58
2023-07-24T20:03:55.106Z,58.65
2023-07-24T20:06:22.607Z,57.50
2023-07-24T20:08:50.208Z,58.10
2023-07-24T20:11:18.046Z,58.24
2023-07-24T20:13:45.594Z,59.56
2023-07-24T20:16:13.209Z,64.94
2023-07-24T20:18:41.114Z,63.53
2023-07-24T20:21:08.511Z,64.52
2023-07-24T20:23:36.083Z,64.29
2023-07-24T20:26:04.174Z,64.27
2023-07-24T20:28:31.637Z,63.10
2023-07-24T20:30:59.701Z,62.13
2023-07-24T20:33:28.016Z,62.66
2023-07-24T20:35:55.464Z,62.33
2023-07-24T20:38:28.334Z,61.94
2023-07-24T20:40:59.259Z,61.99
2023-07-24T20:43:26.727Z,62.43
2023-07-24T20:45:54.401Z,63.23
2023-07-24T20:48:23.178Z,62.57
2023-07-24T20:50:50.843Z,64.68
2023-07-24T20:53:18.268Z,64.02
2023-07-24T20:55:46.114Z,64.46
2023-07-24T20:58:13.708Z,64.34
2023-07-24T21:00:41.262Z,64.01
2023-07-24T21:03:09.138Z,62.37
2023-07-24T21:05:38.094Z,63.02
2023-07-24T21:08:06.373Z,62.80
2023-07-24T21:10:34.157Z,62.35
2023-07-24T21:13:01.611Z,62.50
2023-07-24T21:15:29.121Z,61.73
2023-07-24T21:17:57.006Z,61.83
2023-07-24T21:20:24.608Z,63.02
2023-07-24T21:22:52.181Z,64.06
2023-07-24T21:25:20.018Z,64.85
2023-07-24T21:27:47.483Z,63.70
2023-07-24T21:30:15.334Z,63.60
2023-07-24T21:32:43.260Z,65.13
2023-07-24T21:35:11.087Z,65.49
2023-07-24T21:37:40.242Z,67.53
2023-07-24T21:40:09.312Z,66.43
2023-07-24T21:42:36.767Z,67.83
2023-07-24T21:45:04.768Z,67.17
2023-07-24T21:47:32.553Z,66.64
2023-07-24T21:50:00.058Z,66.54
2023-07-24T21:52:27.454Z,66.83
2023-07-24T21:54:55.296Z,66.28
2023-07-24T21:57:22.847Z,66.09
2023-07-24T21:59:50.297Z,65.87
2023-07-24T22:02:18.089Z,67.90
2023-07-24T22:04:46.049Z,67.91
2023-07-24T22:07:13.495Z,67.98
2023-07-24T22:09:40.895Z,66.84
2023-07-24T22:12:08.971Z,68.12
2023-07-24T22:14:36.607Z,68.16
2023-07-24T22:17:04.385Z,68.51
2023-07-24T22:19:32.222Z,68.87
2023-07-24T22:21:59.793Z,69.93
2023-07-24T22:24:27.250Z,69.80
2023-07-24T22:26:54.978Z,70.01
2023-07-24T22:29:22.337Z,69.23
2023-07-24T22:31:49.731Z,70.04
2023-07-24T22:34:17.523Z,70.96
2023-07-24T22:36:45.140Z,69.19
2023-07-24T22:39:12.550Z,68.54
2023-07-24T22:41:40.392Z,69.69
2023-07-24T22:44:07.856Z,69.53
2023-07-24T22:46:35.358Z,69.84
2023-07-24T22:49:03.280Z,68.36
2023-07-24T22:51:30.990Z,69.41
2023-07-24T22:53:59.094Z,70.03
2023-07-24T22:56:27.094Z,71.13
2023-07-24T22:59:03.739Z,70.95
2023-07-24T23:01:33.376Z,70.76
2023-07-24T23:04:01.341Z,70.27
2023-07-24T23:06:28.851Z,70.66
2023-07-24T23:08:56.574Z,70.04
2023-07-24T23:11:23.914Z,70.71
2023-07-24T23:13:51.289Z,71.14
2023-07-24T23:16:18.899Z,71.43
2023-07-24T23:18:46.243Z,71.90
2023-07-24T23:21:13.686Z,72.41
2023-07-24T23:23:41.431Z,71.07
2023-07-24T23:26:09.002Z,71.13
2023-07-24T23:28:36.388Z,71.38
2023-07-24T23:31:05.503Z,70.47
2023-07-24T23:33:37.354Z,70.76
2023-07-24T23:36:08.211Z,71.06
2023-07-24T23:38:36.979Z,74.10
2023-07-24T23:41:06.496Z,72.76
2023-07-24T23:43:34.649Z,73.67
2023-07-24T23:46:09.145Z,73.40
2023-07-24T23:48:37.149Z,73.25
2023-07-24T23:51:04.533Z,72.46
2023-07-24T23:53:31.958Z,73.57
2023-07-24T23:55:59.766Z,75.42
2023-07-24T23:58:27.243Z,74.10
